createdAt,value
2022-08-21T00:02:43.392Z,80
2022-08-21T00:12:44.362Z,80
2022-08-21T00:22:45.106Z,81
2022-08-21T00:32:45.167Z,82
2022-08-21T00:52:46.160Z,82
2022-08-21T01:02:46.755Z,83
2022-08-21T01:12:47.079Z,83
2022-08-21T01:22:47.745Z,84
2022-08-21T01:32:48.070Z,84
2022-08-21T01:42:49.120Z,84
2022-08-21T01:52:49.901Z,85
2022-08-21T02:02:50.899Z,86
2022-08-21T02:12:51.516Z,86
2022-08-21T02:22:51.940Z,86
2022-08-21T02:42:53.290Z,88
2022-08-21T02:52:54.976Z,88
2022-08-21T03:02:54.784Z,88
2022-08-21T03:12:55.315Z,89
2022-08-21T03:22:55.584Z,89
2022-08-21T03:32:56.703Z,89
2022-08-21T03:42:57.741Z,90
2022-08-21T03:52:58.113Z,90
2022-08-21T04:02:59.147Z,90
2022-08-21T04:12:59.948Z,91
2022-08-21T04:33:01.545Z,91
2022-08-21T04:43:01.556Z,91
2022-08-21T04:53:02.494Z,91
2022-08-21T05:03:03.446Z,91
2022-08-21T05:13:04.446Z,92
2022-08-21T05:33:05.566Z,92
2022-08-21T05:43:05.780Z,92
2022-08-21T05:53:07.208Z,92
2022-08-21T06:03:06.546Z,92
2022-08-21T06:13:07.303Z,91
2022-08-21T06:23:08.252Z,91
2022-08-21T06:33:08.823Z,89
2022-08-21T06:43:09.274Z,88
2022-08-21T06:53:09.419Z,87
2022-08-21T07:03:10.249Z,85
2022-08-21T07:13:11.327Z,82
2022-08-21T07:23:12.061Z,80
2022-08-21T07:33:12.633Z,78
2022-08-21T07:43:12.964Z,75
2022-08-21T07:53:13.178Z,71
2022-08-21T08:03:13.968Z,70
2022-08-21T08:13:14.393Z,69
2022-08-21T08:23:14.641Z,68
2022-08-21T08:33:14.758Z,68
2022-08-21T08:43:15.619Z,67
2022-08-21T08:53:16.501Z,66
2022-08-21T09:03:16.596Z,65
2022-08-21T09:13:17.176Z,65
2022-08-21T09:33:18.396Z,62
2022-08-21T09:43:19.150Z,61
2022-08-21T09:53:19.580Z,61
2022-08-21T09:53:41.483Z,61
2022-08-21T10:03:25.243Z,60
2022-08-21T10:13:26.258Z,58
2022-08-21T10:23:26.887Z,57
2022-08-21T10:33:27.029Z,56
2022-08-21T10:43:27.630Z,57
2022-08-21T10:53:28.423Z,56
2022-08-21T11:03:29.460Z,55
2022-08-21T11:13:31.104Z,54
2022-08-21T11:23:30.443Z,54
2022-08-21T11:33:30.756Z,53
2022-08-21T11:43:31.489Z,53
2022-08-21T11:53:31.932Z,53
2022-08-21T12:03:32.788Z,52
2022-08-21T12:23:34.277Z,51
2022-08-21T12:33:34.722Z,50
2022-08-21T12:43:35.634Z,48
2022-08-21T12:53:36.222Z,49
2022-08-21T13:03:36.714Z,46
2022-08-21T13:13:37.759Z,46
2022-08-21T13:23:38.403Z,48
2022-08-21T13:33:38.737Z,47
2022-08-21T13:43:39.387Z,47
2022-08-21T13:53:39.550Z,47
2022-08-21T14:03:40.085Z,45
2022-08-21T14:13:40.391Z,47
2022-08-21T14:23:40.996Z,47
2022-08-21T14:33:42.058Z,47
2022-08-21T14:43:42.245Z,47
2022-08-21T14:53:42.529Z,44
2022-08-21T15:03:43.184Z,46
2022-08-21T15:13:43.910Z,45
2022-08-21T15:23:44.616Z,46
2022-08-21T15:33:45.558Z,45
2022-08-21T15:43:46.059Z,45
2022-08-21T15:53:46.206Z,46
2022-08-21T16:03:47.050Z,47
2022-08-21T16:23:47.807Z,47
2022-08-21T16:33:48.458Z,48
2022-08-21T16:43:48.688Z,48
2022-08-21T16:53:49.618Z,49
2022-08-21T17:03:50.092Z,49
2022-08-21T17:13:51.010Z,49
2022-08-21T17:23:51.175Z,49
2022-08-21T17:33:52.183Z,50
2022-08-21T17:43:52.349Z,50
2022-08-21T17:53:53.417Z,50
2022-08-21T18:03:53.913Z,51
2022-08-21T18:13:54.415Z,52
2022-08-21T18:23:55.330Z,52
2022-08-21T18:33:57.058Z,53
2022-08-21T19:13:57.868Z,58
2022-08-21T19:23:58.851Z,59
2022-08-21T19:33:59.696Z,60
2022-08-21T19:43:59.622Z,61
2022-08-21T20:04:00.499Z,63
2022-08-21T20:14:01.576Z,65
2022-08-21T20:24:02.546Z,67
2022-08-21T20:34:03.479Z,68
2022-08-21T20:54:04.650Z,69
2022-08-21T21:04:05.203Z,69
2022-08-21T21:14:05.395Z,69
2022-08-21T21:24:05.950Z,69
2022-08-21T21:34:06.318Z,70
2022-08-21T21:44:07.214Z,70
2022-08-21T21:54:07.386Z,71
2022-08-21T22:04:07.501Z,71
2022-08-21T22:14:08.507Z,72
2022-08-21T22:24:07.788Z,72
2022-08-21T22:34:17.687Z,73
2022-08-21T22:44:08.309Z,74
2022-08-21T22:54:09.636Z,74
2022-08-21T23:04:09.813Z,75
2022-08-21T23:14:14.168Z,76
2022-08-21T23:24:19.322Z,76
2022-08-21T23:34:11.506Z,77
2022-08-21T23:44:11.811Z,78
2022-08-21T23:54:12.515Z,78
